Vermilionville, Illinois
Current Conditions -  °F | °C
As of 12:55 AM on Thursday 27 Nov 2014 (Local Time) from KVYS Reporting Station
Haze Haze  
Wind Chill: 13°   Ceiling: Unl
Heat Index: 21°   Visibility: 5mi
Dew Point: 18°   Wind: 6mph
Humidity: 87%   Direction: 330°NNW
Pressure: 30.24"   Gusts: NA
Location:  41.2206°N, 89.0553°W
Report Text: KVYS 270655Z AUTO 33005KT 5SM BR CLR M06/M08 A3024 RMK AO2 T10621080
Loading
Personal Weather Stations






























Interactive Weather Map New forecast layout! Learn more

10-Day Weather Forecast

Advertisements
Track Severe Weather on mobile